createdAt,value
2023-05-22T00:00:28.511Z,4.70
2023-05-22T00:02:55.254Z,5.37
2023-05-22T00:05:22.010Z,8.47
2023-05-22T00:07:48.607Z,7.90
2023-05-22T00:10:15.260Z,4.43
2023-05-22T00:12:41.894Z,6.43
2023-05-22T00:15:08.665Z,5.90
2023-05-22T00:17:35.592Z,3.83
2023-05-22T00:20:04.553Z,9.20
2023-05-22T00:22:31.750Z,7.40
2023-05-22T00:24:58.413Z,8.80
2023-05-22T00:27:25.090Z,7.87
2023-05-22T00:29:51.740Z,6.07
2023-05-22T00:32:19.028Z,11.77
2023-05-22T00:34:45.773Z,5.97
2023-05-22T00:37:12.449Z,9.90
2023-05-22T00:39:39.159Z,7.27
2023-05-22T00:42:05.918Z,6.33
2023-05-22T00:44:51.983Z,7.30
2023-05-22T00:47:32.414Z,7.07
2023-05-22T00:50:00.168Z,7.03
2023-05-22T00:52:26.712Z,9.53
2023-05-22T00:54:53.269Z,8.67
2023-05-22T00:57:20.173Z,10.50
2023-05-22T00:59:47.053Z,7.13
2023-05-22T01:02:16.679Z,4.83
2023-05-22T01:04:48.564Z,5.77
2023-05-22T01:07:16.628Z,5.50
2023-05-22T01:09:43.532Z,6.07
2023-05-22T01:12:18.562Z,6.63
2023-05-22T01:15:17.822Z,7.17
2023-05-22T01:17:53.274Z,7.77
2023-05-22T01:20:31.850Z,9.87
2023-05-22T01:23:00.275Z,6.67
2023-05-22T01:25:30.174Z,9.40
2023-05-22T01:28:12.097Z,10.50
2023-05-22T01:30:59.748Z,5.83
2023-05-22T01:33:26.648Z,6.40
2023-05-22T01:35:56.446Z,8.73
2023-05-22T01:38:23.028Z,6.10
2023-05-22T01:40:49.701Z,7.30
2023-05-22T02:15:42.856Z,5.70
2023-05-22T02:18:13.096Z,5.23
2023-05-22T02:20:40.485Z,8.47
2023-05-22T02:23:07.271Z,5.13
2023-05-22T02:25:33.863Z,4.70
2023-05-22T02:28:00.509Z,6.17
2023-05-22T02:30:28.154Z,5.47
2023-05-22T02:32:57.549Z,7.20
2023-05-22T02:35:24.243Z,7.50
2023-05-22T02:37:51.953Z,6.47
2023-05-22T02:40:18.731Z,4.87
2023-05-22T02:42:45.344Z,5.07
2023-05-22T02:45:12.593Z,4.17
2023-05-22T02:47:39.277Z,6.93
2023-05-22T02:50:06.477Z,5.87
2023-05-22T02:52:36.079Z,7.10
2023-05-22T02:55:06.102Z,5.10
2023-05-22T02:57:32.706Z,7.87
2023-05-22T02:59:59.381Z,8.13
2023-05-22T03:02:28.577Z,7.10
2023-05-22T03:04:55.332Z,6.27
2023-05-22T03:07:21.961Z,8.30
2023-05-22T03:09:48.554Z,7.90
2023-05-22T03:12:15.203Z,9.70
2023-05-22T03:14:41.862Z,8.33
2023-05-22T03:17:08.600Z,10.53
2023-05-22T03:19:35.396Z,10.37
2023-05-22T03:22:02.051Z,8.40
2023-05-22T03:24:29.378Z,8.37
2023-05-22T03:26:56.872Z,12.03
2023-05-22T03:29:33.515Z,11.07
2023-05-22T03:32:00.162Z,6.97
2023-05-22T03:34:27.505Z,7.33
2023-05-22T03:36:55.495Z,8.33
2023-05-22T03:39:22.117Z,10.70
2023-05-22T03:42:03.404Z,8.47
2023-05-22T03:44:30.068Z,9.53
2023-05-22T03:46:56.938Z,9.43
2023-05-22T03:49:23.593Z,7.33
2023-05-22T03:51:50.392Z,9.60
2023-05-22T03:54:17.027Z,6.73
2023-05-22T03:56:45.058Z,9.90
2023-05-22T03:59:11.979Z,6.30
2023-05-22T04:01:39.341Z,9.60
2023-05-22T04:04:06.817Z,6.90
2023-05-22T04:06:33.426Z,7.43
2023-05-22T04:09:00.583Z,10.17
2023-05-22T04:12:04.487Z,6.10
2023-05-22T04:14:31.313Z,9.43
2023-05-22T04:16:57.880Z,11.73
2023-05-22T04:19:31.149Z,9.27
2023-05-22T04:21:58.165Z,12.77
2023-05-22T04:24:25.531Z,12.47
2023-05-22T04:26:52.405Z,12.17
2023-05-22T04:29:19.751Z,9.13
2023-05-22T04:31:46.417Z,7.63
2023-05-22T04:34:15.344Z,7.77
2023-05-22T04:36:45.456Z,7.13
2023-05-22T04:39:15.259Z,9.53
2023-05-22T04:41:42.046Z,8.50
2023-05-22T04:44:08.732Z,6.80
2023-05-22T04:46:36.257Z,9.50
2023-05-22T04:49:05.001Z,6.73
2023-05-22T04:51:32.406Z,6.77
2023-05-22T04:53:59.098Z,9.73
2023-05-22T04:56:36.215Z,7.77
2023-05-22T04:59:05.789Z,12.20
2023-05-22T05:01:35.296Z,8.83
2023-05-22T05:04:03.022Z,8.20
2023-05-22T05:06:33.831Z,11.27
2023-05-22T05:09:05.922Z,10.03
2023-05-22T05:11:34.493Z,10.37
2023-05-22T05:14:02.280Z,7.53
2023-05-22T05:16:29.175Z,11.67
2023-05-22T05:19:01.895Z,7.97
2023-05-22T05:21:29.400Z,6.90
2023-05-22T05:23:59.769Z,4.17
2023-05-22T05:26:27.723Z,10.07
2023-05-22T05:28:56.851Z,5.97
2023-05-22T05:31:27.369Z,5.43
2023-05-22T05:34:10.430Z,8.23
2023-05-22T05:36:57.487Z,5.27
2023-05-22T05:39:25.917Z,10.87
2023-05-22T05:41:52.491Z,7.87
2023-05-22T05:44:20.061Z,7.77
2023-05-22T05:46:46.908Z,7.20
2023-05-22T05:49:16.222Z,6.93
2023-05-22T05:51:43.111Z,15.90
2023-05-22T05:54:11.644Z,7.50
2023-05-22T05:56:40.819Z,9.70
2023-05-22T05:59:08.142Z,6.47
2023-05-22T06:01:39.085Z,8.03
2023-05-22T06:04:12.128Z,6.50
2023-05-22T06:06:43.274Z,8.37
2023-05-22T06:09:10.440Z,9.20
2023-05-22T06:12:01.556Z,7.67
2023-05-22T06:14:29.304Z,5.07
2023-05-22T06:16:57.157Z,9.80
2023-05-22T06:19:24.877Z,6.63
2023-05-22T06:21:52.194Z,5.47
2023-05-22T06:24:21.415Z,10.90
2023-05-22T06:26:48.122Z,6.50
2023-05-22T06:29:14.812Z,5.63
2023-05-22T06:31:41.862Z,4.60
2023-05-22T06:34:09.443Z,8.13
2023-05-22T06:36:36.554Z,4.90
2023-05-22T06:39:03.527Z,5.77
2023-05-22T06:41:53.763Z,4.80
2023-05-22T06:44:21.356Z,3.63
2023-05-22T06:46:53.958Z,4.27
2023-05-22T06:49:23.869Z,3.03
2023-05-22T06:51:54.037Z,5.20
2023-05-22T06:54:21.544Z,3.80
2023-05-22T06:56:51.360Z,5.57
2023-05-22T06:59:18.351Z,4.70
2023-05-22T07:02:10.913Z,6.43
2023-05-22T07:05:08.812Z,5.47
2023-05-22T07:07:52.076Z,4.10
2023-05-22T07:10:18.771Z,3.53
2023-05-22T07:12:46.139Z,4.30
2023-05-22T07:15:14.651Z,3.33
2023-05-22T07:17:47.461Z,3.67
2023-05-22T07:20:15.853Z,4.87
2023-05-22T07:22:47.933Z,4.30
2023-05-22T07:25:16.087Z,4.10
2023-05-22T07:27:43.353Z,3.97
2023-05-22T07:30:11.599Z,3.43
2023-05-22T07:32:39.822Z,3.43
2023-05-22T07:35:08.078Z,3.07
2023-05-22T07:37:36.230Z,3.33
2023-05-22T07:40:06.614Z,3.20
2023-05-22T07:42:33.795Z,2.93
2023-05-22T07:45:05.656Z,3.17
2023-05-22T07:47:35.796Z,2.30
2023-05-22T07:50:05.945Z,3.10
2023-05-22T07:52:36.096Z,4.80
2023-05-22T07:55:04.737Z,3.50
2023-05-22T07:57:32.921Z,3.17
2023-05-22T08:00:14.137Z,5.30
2023-05-22T08:02:41.266Z,1.83
2023-05-22T08:05:08.458Z,3.37
2023-05-22T08:07:36.038Z,4.20
2023-05-22T08:10:03.234Z,4.00
2023-05-22T08:12:29.977Z,2.90
2023-05-22T08:14:56.613Z,1.77
2023-05-22T08:17:23.350Z,2.10
2023-05-22T08:19:50.608Z,2.47
2023-05-22T08:22:18.171Z,2.90
2023-05-22T08:24:44.903Z,3.03
2023-05-22T08:27:11.697Z,1.80
2023-05-22T08:29:38.397Z,2.93
2023-05-22T08:32:05.440Z,3.57
2023-05-22T08:34:33.093Z,2.73
2023-05-22T08:37:00.166Z,3.00
2023-05-22T08:39:29.273Z,6.03
2023-05-22T08:41:56.071Z,4.37
2023-05-22T08:44:22.873Z,5.93
2023-05-22T08:46:56.622Z,4.30
2023-05-22T08:49:24.196Z,2.50
2023-05-22T08:51:52.712Z,2.97
2023-05-22T08:54:19.861Z,3.93
2023-05-22T08:56:56.256Z,3.13
2023-05-22T08:59:24.164Z,3.53
2023-05-22T09:01:52.662Z,6.87
2023-05-22T09:04:23.104Z,2.37
2023-05-22T09:06:50.663Z,2.73
2023-05-22T09:09:17.618Z,3.23
2023-05-22T09:11:44.336Z,3.00
2023-05-22T09:14:11.499Z,2.10
2023-05-22T09:16:48.058Z,3.50
2023-05-22T09:19:15.176Z,3.10
2023-05-22T09:21:42.597Z,1.93
2023-05-22T09:24:11.845Z,1.43
2023-05-22T09:26:38.893Z,1.57
2023-05-22T09:29:06.669Z,5.30
2023-05-22T09:31:36.078Z,2.73
2023-05-22T09:34:02.714Z,2.47
2023-05-22T09:36:33.358Z,3.60
2023-05-22T09:39:00.546Z,2.33
2023-05-22T09:41:28.207Z,2.73
2023-05-22T09:43:55.001Z,1.77
2023-05-22T09:46:23.702Z,1.63
2023-05-22T09:48:53.544Z,4.00
2023-05-22T09:51:26.874Z,5.53
2023-05-22T09:53:54.753Z,3.40
2023-05-22T09:56:37.978Z,5.27
2023-05-22T09:59:08.328Z,1.97
2023-05-22T10:01:35.388Z,3.57
2023-05-22T10:04:02.317Z,4.47
2023-05-22T10:06:29.911Z,4.20
2023-05-22T10:09:02.777Z,2.00
2023-05-22T10:11:29.656Z,2.20
2023-05-22T10:13:58.875Z,5.17
2023-05-22T10:16:26.512Z,5.80
2023-05-22T10:18:53.211Z,3.53
2023-05-22T10:21:20.338Z,3.00
2023-05-22T10:23:46.978Z,3.50
2023-05-22T10:26:14.701Z,2.13
2023-05-22T10:28:47.609Z,2.63
2023-05-22T10:31:17.205Z,2.40
2023-05-22T10:34:04.297Z,1.47
2023-05-22T10:36:34.702Z,4.10
2023-05-22T10:39:01.299Z,3.50
2023-05-22T10:41:30.654Z,5.67
2023-05-22T10:43:57.992Z,2.60
2023-05-22T10:46:25.070Z,2.77
2023-05-22T10:48:53.317Z,3.20
2023-05-22T10:51:20.482Z,1.30
2023-05-22T10:53:55.997Z,2.07
2023-05-22T10:56:25.313Z,4.20
2023-05-22T10:58:58.311Z,3.47
2023-05-22T11:01:27.955Z,2.50
2023-05-22T11:04:05.350Z,5.30
2023-05-22T11:06:53.990Z,5.83
2023-05-22T11:09:22.949Z,3.60
2023-05-22T11:12:10.196Z,1.73
2023-05-22T11:14:37.495Z,1.67
2023-05-22T11:17:05.759Z,2.73
2023-05-22T11:19:32.632Z,1.80
2023-05-22T11:22:03.305Z,1.67
2023-05-22T11:24:34.194Z,4.73
2023-05-22T11:27:03.287Z,1.70
2023-05-22T11:29:30.570Z,2.70
2023-05-22T11:31:58.063Z,2.80
2023-05-22T11:34:25.155Z,2.87
2023-05-22T11:36:53.082Z,2.00
2023-05-22T11:39:19.729Z,3.00
2023-05-22T11:41:50.532Z,3.17
2023-05-22T11:44:17.572Z,4.20
2023-05-22T11:46:44.816Z,2.30
2023-05-22T11:49:14.739Z,2.83
2023-05-22T11:51:41.405Z,2.20
2023-05-22T11:54:08.145Z,3.10
2023-05-22T11:56:36.388Z,2.77
2023-05-22T11:59:03.195Z,3.13
2023-05-22T12:01:29.758Z,3.70
2023-05-22T12:03:57.483Z,3.17
2023-05-22T12:06:24.291Z,2.60
2023-05-22T12:08:51.618Z,2.27
2023-05-22T12:11:19.138Z,2.30
2023-05-22T12:13:52.122Z,2.27
2023-05-22T12:16:19.470Z,3.03
2023-05-22T12:18:46.767Z,3.53
2023-05-22T12:21:13.472Z,6.40
2023-05-22T12:23:47.813Z,4.07
2023-05-22T12:26:14.391Z,3.00
2023-05-22T12:28:41.088Z,4.53
2023-05-22T12:31:08.624Z,2.03
2023-05-22T12:33:35.235Z,4.10
2023-05-22T12:36:03.425Z,4.60
2023-05-22T12:38:32.438Z,2.40
2023-05-22T12:41:01.009Z,9.93
2023-05-22T12:43:27.628Z,4.07
2023-05-22T12:45:54.551Z,3.20
2023-05-22T12:48:21.243Z,3.27
2023-05-22T12:50:48.230Z,4.47
2023-05-22T12:53:15.018Z,3.27
2023-05-22T12:55:43.273Z,2.87
2023-05-22T12:58:10.076Z,2.00
2023-05-22T13:00:38.154Z,2.27
2023-05-22T13:03:05.548Z,2.87
2023-05-22T13:05:32.414Z,4.53
2023-05-22T13:07:59.188Z,3.57
2023-05-22T13:10:30.705Z,2.00
2023-05-22T13:12:57.426Z,2.40
2023-05-22T13:15:24.554Z,2.23
2023-05-22T13:17:52.099Z,3.13
2023-05-22T13:20:18.822Z,3.77
2023-05-22T13:22:45.867Z,3.77
2023-05-22T13:25:13.411Z,3.70
2023-05-22T13:27:40.712Z,4.53
2023-05-22T13:30:07.716Z,3.13
2023-05-22T13:32:35.186Z,4.57
2023-05-22T13:35:01.928Z,4.10
2023-05-22T13:37:28.703Z,2.93
2023-05-22T13:39:55.319Z,2.63
2023-05-22T13:42:22.325Z,2.70
2023-05-22T13:44:49.535Z,4.60
2023-05-22T13:47:16.392Z,4.27
2023-05-22T13:49:43.410Z,1.80
2023-05-22T13:52:10.071Z,2.90
2023-05-22T13:54:36.778Z,3.43
2023-05-22T13:57:03.636Z,3.80
2023-05-22T13:59:30.275Z,3.67
2023-05-22T14:01:56.941Z,10.03
2023-05-22T14:04:23.684Z,11.80
2023-05-22T14:06:50.528Z,2.30
2023-05-22T14:09:17.313Z,3.27
2023-05-22T14:11:44.062Z,5.67
2023-05-22T14:14:14.001Z,3.53
2023-05-22T14:16:40.642Z,4.50
2023-05-22T14:19:07.505Z,3.30
2023-05-22T14:21:34.413Z,3.40
2023-05-22T14:24:02.566Z,10.20
2023-05-22T14:26:29.320Z,2.87
2023-05-22T14:28:56.816Z,3.07
2023-05-22T14:31:25.070Z,3.10
2023-05-22T14:33:51.768Z,3.13
2023-05-22T14:36:18.397Z,3.30
2023-05-22T14:38:45.030Z,4.80
2023-05-22T14:41:12.045Z,4.57
2023-05-22T14:43:38.782Z,2.50
2023-05-22T14:46:06.024Z,2.50
2023-05-22T14:48:33.505Z,2.80
2023-05-22T14:51:00.334Z,3.70
2023-05-22T14:53:26.967Z,3.37
2023-05-22T14:55:54.304Z,3.17
2023-05-22T14:58:21.071Z,5.53
2023-05-22T15:00:47.707Z,7.13
2023-05-22T15:03:14.382Z,4.00
2023-05-22T15:05:41.288Z,3.77
2023-05-22T15:08:08.656Z,3.43
2023-05-22T15:10:36.294Z,3.33
2023-05-22T15:13:03.040Z,5.50
2023-05-22T15:15:31.006Z,5.57
2023-05-22T15:18:00.768Z,6.60
2023-05-22T15:20:27.922Z,6.07
2023-05-22T15:22:54.550Z,1.67
2023-05-22T15:25:21.371Z,2.77
2023-05-22T15:27:48.058Z,3.53
2023-05-22T15:30:17.064Z,2.23
2023-05-22T15:32:43.822Z,2.57
2023-05-22T15:35:11.212Z,2.40
2023-05-22T15:37:37.853Z,2.10
2023-05-22T15:40:05.837Z,2.63
2023-05-22T15:42:32.548Z,2.40
2023-05-22T15:44:59.493Z,2.03
2023-05-22T15:47:26.230Z,2.13
2023-05-22T15:49:53.752Z,5.73
2023-05-22T15:52:22.611Z,4.07
2023-05-22T15:54:49.333Z,5.67
2023-05-22T15:57:16.489Z,2.53
2023-05-22T15:59:43.453Z,1.87
2023-05-22T16:02:11.258Z,2.33
2023-05-22T16:04:39.239Z,2.70
2023-05-22T16:07:05.901Z,4.87
2023-05-22T16:09:32.852Z,4.67
2023-05-22T16:11:59.794Z,2.70
2023-05-22T16:14:26.457Z,2.80
2023-05-22T16:16:53.077Z,3.17
2023-05-22T16:19:19.937Z,4.10
2023-05-22T16:21:46.577Z,2.30
2023-05-22T16:24:13.319Z,2.83
2023-05-22T16:26:40.202Z,3.60
2023-05-22T16:29:07.391Z,2.83
2023-05-22T16:31:35.836Z,2.97
2023-05-22T16:34:03.606Z,4.83
2023-05-22T16:36:30.230Z,5.30
2023-05-22T16:38:57.091Z,3.00
2023-05-22T16:41:23.716Z,3.40
2023-05-22T16:43:50.535Z,2.43
2023-05-22T16:46:17.260Z,2.47
2023-05-22T16:48:44.071Z,1.90
2023-05-22T16:51:11.502Z,3.67
2023-05-22T16:53:38.479Z,4.30
2023-05-22T16:56:05.500Z,2.90
2023-05-22T16:58:32.781Z,1.87
2023-05-22T17:00:59.591Z,3.47
2023-05-22T17:03:26.738Z,3.60
2023-05-22T17:05:54.493Z,4.60
2023-05-22T17:08:21.175Z,3.90
2023-05-22T17:10:48.351Z,3.80
2023-05-22T17:13:20.839Z,3.63
2023-05-22T17:15:48.989Z,3.93
2023-05-22T17:18:19.808Z,3.43
2023-05-22T17:20:55.866Z,6.50
2023-05-22T17:23:23.279Z,7.53
2023-05-22T17:25:50.950Z,3.20
2023-05-22T17:28:18.690Z,2.53
2023-05-22T17:30:47.620Z,2.67
2023-05-22T17:33:15.307Z,3.87
2023-05-22T17:35:42.564Z,8.07
2023-05-22T17:38:09.344Z,5.73
2023-05-22T17:40:44.601Z,6.73
2023-05-22T17:43:12.633Z,4.27
2023-05-22T17:45:39.662Z,6.70
2023-05-22T17:48:07.111Z,6.30
2023-05-22T17:50:34.834Z,6.87
2023-05-22T17:53:02.343Z,7.53
2023-05-22T17:55:29.023Z,7.33
2023-05-22T17:57:56.902Z,14.30
2023-05-22T18:00:23.786Z,12.23
2023-05-22T18:02:50.739Z,8.80
2023-05-22T18:05:18.858Z,9.03
2023-05-22T18:07:45.664Z,3.63
2023-05-22T18:10:12.986Z,8.47
2023-05-22T18:12:40.887Z,10.20
2023-05-22T18:15:11.158Z,5.63
2023-05-22T18:17:38.709Z,6.80
2023-05-22T18:20:07.683Z,3.33
2023-05-22T18:22:35.977Z,4.77
2023-05-22T18:25:02.894Z,4.53
2023-05-22T18:27:30.856Z,3.90
2023-05-22T18:29:57.680Z,5.53
2023-05-22T18:32:26.535Z,4.80
2023-05-22T18:34:53.485Z,3.70
2023-05-22T18:37:20.522Z,4.97
2023-05-22T18:39:47.406Z,3.67
2023-05-22T18:42:15.094Z,9.50
2023-05-22T18:44:41.740Z,8.13
2023-05-22T18:47:09.981Z,6.10
2023-05-22T18:49:37.986Z,8.37
2023-05-22T18:52:05.869Z,4.67
2023-05-22T18:54:32.629Z,5.77
2023-05-22T18:56:59.347Z,10.03
2023-05-22T18:59:26.101Z,11.03
2023-05-22T19:01:52.791Z,10.20
2023-05-22T19:04:19.558Z,15.37
2023-05-22T19:06:46.406Z,8.83
2023-05-22T19:09:13.745Z,10.67
2023-05-22T19:11:40.552Z,10.50
2023-05-22T19:14:07.363Z,19.17
2023-05-22T19:16:35.057Z,14.63
2023-05-22T19:19:02.062Z,14.60
2023-05-22T19:21:29.096Z,9.77
2023-05-22T19:23:56.206Z,9.10
2023-05-22T19:26:23.014Z,8.67
2023-05-22T19:28:49.851Z,9.77
2023-05-22T19:31:16.755Z,8.87
2023-05-22T19:33:45.803Z,7.57
2023-05-22T19:36:13.275Z,8.37
2023-05-22T19:38:39.957Z,6.23
2023-05-22T19:41:06.633Z,5.03
2023-05-22T19:43:33.342Z,7.60
2023-05-22T19:46:00.257Z,7.33
2023-05-22T19:48:27.290Z,6.83
2023-05-22T19:50:55.661Z,5.27
2023-05-22T19:53:22.243Z,5.57
2023-05-22T19:55:50.850Z,8.63
2023-05-22T19:58:17.938Z,6.77
2023-05-22T20:00:49.562Z,4.57
2023-05-22T20:03:16.741Z,5.60
2023-05-22T20:05:44.294Z,5.50
2023-05-22T20:08:13.235Z,5.87
2023-05-22T20:10:41.786Z,8.13
2023-05-22T20:13:08.938Z,8.40
2023-05-22T20:15:35.939Z,11.53
2023-05-22T20:18:04.013Z,14.83
2023-05-22T20:20:30.859Z,15.57
2023-05-22T20:22:58.597Z,19.83
2023-05-22T20:25:25.302Z,21.73
2023-05-22T20:27:54.514Z,21.67
2023-05-22T20:30:21.237Z,18.07
2023-05-22T20:32:47.902Z,18.33
2023-05-22T20:35:18.475Z,14.57
2023-05-22T20:37:46.248Z,15.57
2023-05-22T20:40:13.251Z,12.30
2023-05-22T20:42:41.213Z,9.07
2023-05-22T20:45:08.227Z,13.33
2023-05-22T20:47:36.337Z,9.33
2023-05-22T20:50:03.074Z,6.77
2023-05-22T20:52:33.770Z,8.33
2023-05-22T20:55:00.339Z,7.47
2023-05-22T20:57:26.959Z,6.33
2023-05-22T20:59:53.973Z,6.60
2023-05-22T21:02:20.708Z,5.17
2023-05-22T21:04:47.477Z,6.97
2023-05-22T21:07:14.170Z,7.67
2023-05-22T21:09:42.144Z,16.87
2023-05-22T21:12:08.762Z,21.00
2023-05-22T21:14:35.626Z,10.63
2023-05-22T21:17:02.358Z,14.70
2023-05-22T21:19:29.638Z,14.60
2023-05-22T21:21:56.363Z,22.97
2023-05-22T21:24:23.246Z,23.83
2023-05-22T21:26:50.218Z,17.90
2023-05-22T21:29:16.821Z,18.23
2023-05-22T21:31:44.280Z,14.50
2023-05-22T21:34:11.053Z,17.40
2023-05-22T21:36:38.082Z,12.17
2023-05-22T21:39:05.706Z,14.53
2023-05-22T21:41:32.347Z,9.30
2023-05-22T21:43:59.555Z,10.40
2023-05-22T21:46:26.334Z,6.97
2023-05-22T21:48:54.000Z,8.03
2023-05-22T21:51:20.687Z,14.30
2023-05-22T21:53:47.446Z,7.40
2023-05-22T21:56:14.093Z,11.00
2023-05-22T21:58:44.156Z,10.43
2023-05-22T22:01:11.489Z,9.30
2023-05-22T22:03:39.005Z,8.53
2023-05-22T22:06:05.931Z,10.10
2023-05-22T22:08:33.441Z,11.37
2023-05-22T22:11:01.271Z,38.13
2023-05-22T22:13:27.971Z,18.67
2023-05-22T22:15:55.068Z,13.60
2023-05-22T22:18:22.076Z,12.57
2023-05-22T22:20:54.298Z,14.80
2023-05-22T22:23:22.452Z,11.77
2023-05-22T22:25:49.362Z,10.93
2023-05-22T22:28:16.082Z,11.43
2023-05-22T22:30:43.959Z,12.60
2023-05-22T22:33:12.171Z,10.00
2023-05-22T22:35:39.642Z,11.87
2023-05-22T22:38:06.489Z,16.90
2023-05-22T22:40:33.079Z,15.87
2023-05-22T22:42:59.715Z,11.90
2023-05-22T22:45:26.566Z,15.83
2023-05-22T22:47:53.374Z,12.47
2023-05-22T22:50:19.980Z,11.20
2023-05-22T22:52:46.774Z,10.77
2023-05-22T22:55:13.590Z,12.50
2023-05-22T22:57:43.322Z,12.20
2023-05-22T23:00:10.716Z,9.07
2023-05-22T23:02:38.157Z,11.93
2023-05-22T23:05:05.066Z,9.30
2023-05-22T23:07:33.298Z,9.60
2023-05-22T23:09:59.940Z,9.83
2023-05-22T23:12:26.749Z,8.07
2023-05-22T23:14:54.654Z,12.10
2023-05-22T23:17:21.300Z,8.43
2023-05-22T23:19:47.940Z,9.30
2023-05-22T23:22:14.592Z,10.97
2023-05-22T23:24:41.115Z,9.50
2023-05-22T23:27:07.680Z,9.47
2023-05-22T23:29:34.282Z,10.00
2023-05-22T23:32:01.084Z,9.83
2023-05-22T23:34:27.701Z,10.10
2023-05-22T23:36:54.305Z,10.27
2023-05-22T23:39:21.418Z,6.97
2023-05-22T23:41:48.093Z,11.10
2023-05-22T23:44:15.590Z,12.47
2023-05-22T23:46:43.895Z,7.97
2023-05-22T23:49:10.665Z,10.30
2023-05-22T23:51:37.413Z,11.00
2023-05-22T23:54:04.463Z,9.73
2023-05-22T23:56:31.229Z,8.67
2023-05-22T23:58:57.888Z,11.63
